createdAt,value
2022-12-20T00:02:08.547Z,-91
2022-12-20T00:04:40.642Z,-91
2022-12-20T00:07:11.828Z,-91
2022-12-20T00:09:46.977Z,-91
2022-12-20T00:12:18.852Z,-91
2022-12-20T00:14:53.648Z,-91
2022-12-20T00:17:33.986Z,-91
2022-12-20T00:20:04.850Z,-91
2022-12-20T00:22:36.383Z,-91
2022-12-20T00:25:11.125Z,-91
2022-12-20T00:27:41.163Z,-91
2022-12-20T00:30:11.380Z,-90
2022-12-20T00:32:40.276Z,-85
2022-12-20T00:35:10.085Z,-85
2022-12-20T00:37:38.890Z,-86
2022-12-20T00:40:10.770Z,-85
2022-12-20T00:42:39.491Z,-85
2022-12-20T00:45:09.543Z,-85
2022-12-20T00:47:38.195Z,-86
2022-12-20T00:50:08.862Z,-87
2022-12-20T00:52:37.595Z,-86
2022-12-20T00:55:08.469Z,-86
2022-12-20T00:57:37.184Z,-86
2022-12-20T01:00:07.606Z,-83
2022-12-20T01:02:36.589Z,-85
2022-12-20T01:05:06.236Z,-86
2022-12-20T01:07:35.234Z,-86
2022-12-20T01:10:03.926Z,-85
2022-12-20T01:12:33.974Z,-86
2022-12-20T01:15:02.575Z,-86
2022-12-20T01:17:31.312Z,-86
2022-12-20T01:20:00.218Z,-86
2022-12-20T01:22:28.860Z,-86
2022-12-20T01:24:57.580Z,-85
2022-12-20T01:27:26.300Z,-86
2022-12-20T01:29:56.465Z,-86
2022-12-20T01:32:25.198Z,-86
2022-12-20T01:34:55.835Z,-86
2022-12-20T01:37:24.375Z,-86
2022-12-20T01:39:53.167Z,-85
2022-12-20T01:42:21.985Z,-86
2022-12-20T01:45:01.501Z,-85
2022-12-20T01:47:35.930Z,-86
2022-12-20T01:50:09.205Z,-86
2022-12-20T01:52:42.111Z,-85
2022-12-20T01:55:18.973Z,-86
2022-12-20T01:57:53.868Z,-86
2022-12-20T02:00:24.566Z,-86
2022-12-20T02:02:54.328Z,-86
2022-12-20T02:05:25.091Z,-85
2022-12-20T02:07:57.806Z,-86
2022-12-20T02:10:38.805Z,-86
2022-12-20T02:13:16.764Z,-86
2022-12-20T02:15:56.223Z,-86
2022-12-20T02:18:33.838Z,-86
2022-12-20T02:21:25.618Z,-86
2022-12-20T02:24:47.372Z,-86
2022-12-20T02:27:59.285Z,-86
2022-12-20T02:30:36.120Z,-86
2022-12-20T02:33:08.504Z,-85
2022-12-20T02:35:39.921Z,-86
2022-12-20T02:38:29.809Z,-86
2022-12-20T02:41:05.121Z,-86
2022-12-20T02:43:54.648Z,-86
2022-12-20T02:46:27.908Z,-87
2022-12-20T02:49:02.117Z,-86
2022-12-20T02:51:33.586Z,-87
2022-12-20T02:54:03.621Z,-86
2022-12-20T02:56:38.048Z,-86
2022-12-20T02:59:15.564Z,-86
2022-12-20T03:01:51.106Z,-86
2022-12-20T03:04:24.868Z,-86
2022-12-20T03:07:01.851Z,-86
2022-12-20T03:09:33.069Z,-86
2022-12-20T03:12:01.889Z,-86
2022-12-20T03:14:30.531Z,-86
2022-12-20T03:17:01.013Z,-86
2022-12-20T03:19:29.890Z,-85
2022-12-20T03:21:58.790Z,-86
2022-12-20T03:24:27.688Z,-85
2022-12-20T03:26:56.363Z,-86
2022-12-20T03:29:25.018Z,-86
2022-12-20T03:31:53.932Z,-85
2022-12-20T03:34:24.393Z,-85
2022-12-20T03:36:53.151Z,-85
2022-12-20T03:39:21.800Z,-85
2022-12-20T03:41:50.439Z,-86
2022-12-20T03:44:19.265Z,-86
2022-12-20T03:46:48.049Z,-85
2022-12-20T03:49:17.006Z,-86
2022-12-20T03:51:47.012Z,-86
2022-12-20T03:54:15.595Z,-85
2022-12-20T03:56:44.196Z,-86
2022-12-20T03:59:12.699Z,-86
2022-12-20T04:01:41.522Z,-86
2022-12-20T04:04:13.983Z,-86
2022-12-20T04:06:43.319Z,-86
2022-12-20T04:09:13.301Z,-85
2022-12-20T04:11:41.960Z,-85
2022-12-20T04:14:10.709Z,-86
2022-12-20T04:16:39.962Z,-88
2022-12-20T04:19:08.697Z,-86
2022-12-20T04:21:37.983Z,-86
2022-12-20T04:24:08.217Z,-86
2022-12-20T04:26:39.724Z,-86
2022-12-20T04:29:08.584Z,-85
2022-12-20T04:31:37.376Z,-86
2022-12-20T04:34:06.540Z,-85
2022-12-20T04:36:35.302Z,-86
2022-12-20T04:39:03.945Z,-85
2022-12-20T04:41:32.525Z,-86
2022-12-20T04:44:02.609Z,-86
2022-12-20T04:46:31.350Z,-86
2022-12-20T04:49:00.239Z,-86
2022-12-20T04:51:29.550Z,-86
2022-12-20T04:53:57.496Z,-86
2022-12-20T04:56:29.439Z,-86
2022-12-20T04:59:02.629Z,-86
2022-12-20T05:01:31.394Z,-86
2022-12-20T05:04:00.280Z,-86
2022-12-20T05:06:28.989Z,-86
2022-12-20T05:08:57.573Z,-88
2022-12-20T05:11:26.182Z,-86
2022-12-20T05:13:54.951Z,-86
2022-12-20T05:16:24.982Z,-87
2022-12-20T05:18:54.773Z,-86
2022-12-20T05:21:40.871Z,-86
2022-12-20T05:24:28.555Z,-86
2022-12-20T05:26:57.689Z,-86
2022-12-20T05:29:26.425Z,-86
2022-12-20T05:31:56.562Z,-86
2022-12-20T05:34:25.889Z,-86
2022-12-20T05:36:54.611Z,-86
2022-12-20T05:39:23.213Z,-86
2022-12-20T05:41:51.726Z,-87
2022-12-20T05:44:22.488Z,-86
2022-12-20T05:46:51.107Z,-89
2022-12-20T05:49:21.145Z,-86
2022-12-20T05:51:49.918Z,-87
2022-12-20T05:54:18.808Z,-86
2022-12-20T05:56:47.370Z,-87
2022-12-20T05:59:17.901Z,-87
2022-12-20T06:01:46.553Z,-86
2022-12-20T06:04:15.318Z,-86
2022-12-20T06:06:45.362Z,-86
2022-12-20T06:09:14.052Z,-87
2022-12-20T06:11:42.649Z,-87
2022-12-20T06:14:11.641Z,-86
2022-12-20T06:16:40.333Z,-86
2022-12-20T06:19:09.202Z,-86
2022-12-20T06:21:37.748Z,-86
2022-12-20T06:24:08.518Z,-87
2022-12-20T06:26:37.272Z,-87
2022-12-20T06:29:10.467Z,-91
2022-12-20T06:31:41.780Z,-91
2022-12-20T06:34:11.098Z,-91
2022-12-20T06:36:40.734Z,-91
2022-12-20T06:39:14.787Z,-91
2022-12-20T06:41:43.961Z,-90
2022-12-20T06:44:15.045Z,-91
2022-12-20T06:46:44.479Z,-91
2022-12-20T06:49:13.672Z,-91
2022-12-20T06:51:42.725Z,-91
2022-12-20T06:54:15.147Z,-90
2022-12-20T06:56:46.286Z,-90
2022-12-20T06:59:15.491Z,-90
2022-12-20T07:01:46.498Z,-91
2022-12-20T07:04:15.659Z,-91
2022-12-20T07:06:44.788Z,-91
2022-12-20T07:09:15.192Z,-91
2022-12-20T07:11:45.851Z,-91
2022-12-20T07:14:14.721Z,-91
2022-12-20T07:16:45.949Z,-91
2022-12-20T07:19:18.277Z,-91
2022-12-20T07:21:48.991Z,-91
2022-12-20T07:24:19.333Z,-90
2022-12-20T07:26:48.320Z,-91
2022-12-20T07:29:17.152Z,-90
2022-12-20T07:31:47.799Z,-90
2022-12-20T07:34:18.757Z,-91
2022-12-20T07:36:49.808Z,-91
2022-12-20T07:39:20.650Z,-91
2022-12-20T07:41:49.454Z,-90
2022-12-20T07:44:18.319Z,-90
2022-12-20T07:46:47.248Z,-90
2022-12-20T07:49:16.893Z,-90
2022-12-20T07:51:51.565Z,-91
2022-12-20T07:54:26.457Z,-91
2022-12-20T07:57:04.470Z,-91
2022-12-20T07:59:44.052Z,-91
2022-12-20T08:02:22.416Z,-91
2022-12-20T08:04:52.076Z,-91
2022-12-20T08:07:21.217Z,-90
2022-12-20T08:09:52.415Z,-91
2022-12-20T08:12:22.912Z,-91
2022-12-20T08:14:56.337Z,-91
2022-12-20T08:17:25.698Z,-90
2022-12-20T08:19:54.244Z,-87
2022-12-20T08:22:23.200Z,-85
2022-12-20T08:24:53.197Z,-84
2022-12-20T08:27:21.827Z,-83
2022-12-20T08:29:50.672Z,-83
2022-12-20T08:32:19.159Z,-83
2022-12-20T08:34:48.452Z,-84
2022-12-20T08:37:18.589Z,-84
2022-12-20T08:39:47.143Z,-84
2022-12-20T08:42:17.152Z,-84
2022-12-20T08:44:46.014Z,-84
2022-12-20T08:47:14.525Z,-83
2022-12-20T08:49:47.634Z,-83
2022-12-20T08:52:17.125Z,-83
2022-12-20T08:54:45.967Z,-84
2022-12-20T08:57:16.197Z,-84
2022-12-20T08:59:44.885Z,-83
2022-12-20T09:02:13.907Z,-84
2022-12-20T09:04:44.617Z,-85
2022-12-20T09:07:13.662Z,-84
2022-12-20T09:09:42.221Z,-84
2022-12-20T09:12:10.810Z,-83
2022-12-20T09:14:41.660Z,-83
2022-12-20T09:17:10.378Z,-84
2022-12-20T09:19:39.106Z,-84
2022-12-20T09:22:08.826Z,-85
2022-12-20T09:24:39.216Z,-83
2022-12-20T09:27:07.681Z,-84
2022-12-20T09:29:36.273Z,-84
2022-12-20T09:32:06.858Z,-84
2022-12-20T09:34:35.796Z,-84
2022-12-20T09:37:04.273Z,-84
2022-12-20T09:39:33.188Z,-84
2022-12-20T09:42:01.902Z,-85
2022-12-20T09:44:35.690Z,-84
2022-12-20T09:47:16.183Z,-84
2022-12-20T09:49:49.882Z,-84
2022-12-20T09:52:48.921Z,-84
2022-12-20T09:55:32.396Z,-84
2022-12-20T09:58:22.102Z,-84
2022-12-20T10:00:54.321Z,-83
2022-12-20T10:03:30.536Z,-83
2022-12-20T10:06:05.051Z,-84
2022-12-20T10:08:51.344Z,-85
2022-12-20T10:11:55.488Z,-85
2022-12-20T10:14:54.733Z,-85
2022-12-20T10:17:39.856Z,-84
2022-12-20T10:20:38.027Z,-85
2022-12-20T10:23:17.876Z,-86
2022-12-20T10:25:51.676Z,-85
2022-12-20T10:28:28.222Z,-85
2022-12-20T10:31:06.948Z,-87
2022-12-20T10:33:36.255Z,-86
2022-12-20T10:36:27.139Z,-87
2022-12-20T10:38:58.667Z,-84
2022-12-20T10:41:29.998Z,-87
2022-12-20T10:44:02.791Z,-86
2022-12-20T10:46:41.761Z,-86
2022-12-20T10:49:31.295Z,-83
2022-12-20T10:52:04.853Z,-86
2022-12-20T10:54:37.436Z,-85
2022-12-20T10:57:21.138Z,-85
2022-12-20T10:59:54.293Z,-85
2022-12-20T11:02:38.782Z,-85
2022-12-20T11:05:25.679Z,-85
2022-12-20T11:10:47.756Z,-85
2022-12-20T11:13:26.139Z,-85
2022-12-20T11:16:01.826Z,-86
2022-12-20T11:18:44.622Z,-84
2022-12-20T11:21:29.925Z,-81
2022-12-20T11:24:12.125Z,-81
2022-12-20T11:27:03.241Z,-82
2022-12-20T11:30:00.147Z,-82
2022-12-20T11:32:49.112Z,-81
2022-12-20T11:35:26.593Z,-81
2022-12-20T11:38:11.436Z,-81
2022-12-20T11:40:54.045Z,-81
2022-12-20T11:44:15.591Z,-81
2022-12-20T11:46:56.317Z,-82
2022-12-20T11:49:52.251Z,-81
2022-12-20T11:52:36.766Z,-81
2022-12-20T11:55:21.389Z,-81
2022-12-20T12:00:57.015Z,-81
2022-12-20T12:03:34.719Z,-81
2022-12-20T12:06:08.509Z,-81
2022-12-20T12:08:48.275Z,-81
2022-12-20T12:14:31.367Z,-81
2022-12-20T12:17:11.263Z,-82
2022-12-20T12:19:47.500Z,-81
2022-12-20T12:22:25.978Z,-81
2022-12-20T12:25:01.201Z,-82
2022-12-20T12:27:30.288Z,-81
2022-12-20T12:30:01.210Z,-81
2022-12-20T12:32:38.085Z,-81
2022-12-20T12:35:38.874Z,-81
2022-12-20T12:38:31.270Z,-81
2022-12-20T12:41:40.221Z,-80
2022-12-20T12:44:38.578Z,-80
2022-12-20T12:47:26.539Z,-81
2022-12-20T12:49:57.790Z,-82
2022-12-20T12:52:46.190Z,-80
2022-12-20T12:55:39.249Z,-80
2022-12-20T12:58:33.475Z,-82
2022-12-20T13:01:08.286Z,-80
2022-12-20T13:03:44.581Z,-83
2022-12-20T13:07:25.494Z,-81
2022-12-20T13:09:54.212Z,-81
2022-12-20T13:12:58.923Z,-80
2022-12-20T13:16:05.298Z,-81
2022-12-20T13:18:34.206Z,-81
2022-12-20T13:21:44.868Z,-82
2022-12-20T13:24:38.077Z,-80
2022-12-20T13:27:35.715Z,-80
2022-12-20T13:30:29.130Z,-80
2022-12-20T13:33:17.667Z,-82
2022-12-20T13:36:02.499Z,-80
2022-12-20T13:38:54.056Z,-81
2022-12-20T13:41:41.764Z,-81
2022-12-20T13:44:34.640Z,-83
2022-12-20T13:47:27.381Z,-82
2022-12-20T13:49:56.306Z,-81
2022-12-20T13:52:31.519Z,-81
2022-12-20T13:55:08.372Z,-82
2022-12-20T13:57:46.458Z,-82
2022-12-20T14:00:20.258Z,-82
2022-12-20T14:02:49.106Z,-81
2022-12-20T14:05:23.469Z,-81
2022-12-20T14:08:01.093Z,-81
2022-12-20T14:10:34.198Z,-82
2022-12-20T14:13:03.845Z,-80
2022-12-20T14:15:35.042Z,-82
2022-12-20T14:18:17.023Z,-80
2022-12-20T14:20:48.465Z,-81
2022-12-20T14:23:21.769Z,-82
2022-12-20T14:25:56.855Z,-82
2022-12-20T14:28:36.732Z,-81
2022-12-20T14:31:07.595Z,-82
2022-12-20T14:33:39.679Z,-82
2022-12-20T14:36:20.598Z,-80
2022-12-20T14:38:51.503Z,-81
2022-12-20T14:41:39.177Z,-82
2022-12-20T14:44:19.270Z,-81
2022-12-20T14:46:53.588Z,-80
2022-12-20T14:49:30.909Z,-82
2022-12-20T14:52:18.874Z,-81
2022-12-20T14:55:13.206Z,-82
2022-12-20T14:57:49.601Z,-82
2022-12-20T15:00:25.661Z,-81
2022-12-20T15:03:03.906Z,-82
2022-12-20T15:05:53.366Z,-81
2022-12-20T15:08:27.408Z,-82
2022-12-20T15:11:01.679Z,-81
2022-12-20T15:13:34.968Z,-81
2022-12-20T15:16:06.261Z,-81
2022-12-20T15:18:34.901Z,-82
2022-12-20T15:21:15.489Z,-81
2022-12-20T15:23:48.970Z,-80
2022-12-20T15:26:20.129Z,-81
2022-12-20T15:28:50.109Z,-81
2022-12-20T15:31:30.770Z,-82
2022-12-20T15:34:02.718Z,-81
2022-12-20T15:36:33.675Z,-80
2022-12-20T15:39:17.634Z,-82
2022-12-20T15:41:49.862Z,-81
2022-12-20T15:44:23.772Z,-82
2022-12-20T15:46:53.562Z,-81
2022-12-20T15:49:24.501Z,-81
2022-12-20T15:51:56.230Z,-81
2022-12-20T15:54:28.491Z,-81
2022-12-20T15:56:58.845Z,-82
2022-12-20T16:02:25.269Z,-82
2022-12-20T16:04:55.439Z,-84
2022-12-20T16:07:24.999Z,-83
2022-12-20T16:09:53.983Z,-83
2022-12-20T16:12:27.793Z,-84
2022-12-20T16:14:58.116Z,-82
2022-12-20T16:17:26.902Z,-84
2022-12-20T16:19:55.558Z,-83
2022-12-20T16:22:26.121Z,-84
2022-12-20T16:24:54.795Z,-84
2022-12-20T16:27:23.284Z,-84
2022-12-20T16:29:51.764Z,-84
2022-12-20T16:32:25.187Z,-82
2022-12-20T16:34:54.086Z,-84
2022-12-20T16:37:23.349Z,-84
2022-12-20T16:39:51.893Z,-83
2022-12-20T16:42:23.199Z,-83
2022-12-20T16:44:54.140Z,-83
2022-12-20T16:47:24.569Z,-84
2022-12-20T16:49:53.953Z,-84
2022-12-20T16:52:25.267Z,-82
2022-12-20T16:54:53.781Z,-82
2022-12-20T16:57:22.365Z,-82
2022-12-20T16:59:50.784Z,-82
2022-12-20T17:02:28.996Z,-83
2022-12-20T17:04:58.063Z,-83
2022-12-20T17:07:26.741Z,-81
2022-12-20T17:10:10.825Z,-84
2022-12-20T17:12:39.426Z,-84
2022-12-20T17:15:16.293Z,-84
2022-12-20T17:17:46.357Z,-84
2022-12-20T17:20:16.505Z,-84
2022-12-20T17:25:37.226Z,-85
2022-12-20T17:28:06.306Z,-85
2022-12-20T17:30:34.777Z,-85
2022-12-20T17:33:04.869Z,-85
2022-12-20T17:35:34.677Z,-85
2022-12-20T17:38:03.092Z,-85
2022-12-20T17:40:31.577Z,-85
2022-12-20T17:43:00.040Z,-85
2022-12-20T17:45:32.493Z,-85
2022-12-20T17:48:01.316Z,-84
2022-12-20T17:50:31.101Z,-85
2022-12-20T17:53:00.094Z,-85
2022-12-20T17:55:29.949Z,-85
2022-12-20T17:57:58.473Z,-84
2022-12-20T18:00:38.962Z,-85
2022-12-20T18:03:12.659Z,-86
2022-12-20T18:05:49.874Z,-85
2022-12-20T18:08:18.373Z,-85
2022-12-20T18:10:46.896Z,-84
2022-12-20T18:13:15.371Z,-84
2022-12-20T18:15:43.820Z,-84
2022-12-20T18:18:12.214Z,-84
2022-12-20T18:20:40.744Z,-84
2022-12-20T18:23:10.711Z,-84
2022-12-20T18:25:39.250Z,-84
2022-12-20T18:28:08.083Z,-84
2022-12-20T18:30:36.820Z,-84
2022-12-20T18:33:05.364Z,-84
2022-12-20T18:35:33.785Z,-83
2022-12-20T18:38:02.371Z,-84
2022-12-20T18:40:32.389Z,-84
2022-12-20T18:43:05.883Z,-84
2022-12-20T18:45:35.993Z,-84
2022-12-20T18:48:04.625Z,-84
2022-12-20T18:50:33.062Z,-84
2022-12-20T18:53:01.919Z,-84
2022-12-20T18:55:32.673Z,-84
2022-12-20T18:58:01.208Z,-85
2022-12-20T19:00:30.119Z,-84
2022-12-20T19:03:02.324Z,-83
2022-12-20T19:05:33.895Z,-87
2022-12-20T19:08:02.809Z,-86
2022-12-20T19:10:34.234Z,-86
2022-12-20T19:13:06.048Z,-87
2022-12-20T19:15:34.844Z,-87
2022-12-20T19:18:03.969Z,-86
2022-12-20T19:20:32.488Z,-86
2022-12-20T19:23:01.060Z,-86
2022-12-20T19:25:30.449Z,-86
2022-12-20T19:28:00.524Z,-87
2022-12-20T19:30:30.118Z,-86
2022-12-20T19:32:58.884Z,-87
2022-12-20T19:35:54.781Z,-87
2022-12-20T19:38:16.124Z,-87
2022-12-20T19:40:44.584Z,-87
2022-12-20T19:43:14.615Z,-87
2022-12-20T19:45:43.323Z,-86
2022-12-20T19:48:11.879Z,-87
2022-12-20T19:50:40.466Z,-86
2022-12-20T19:53:10.705Z,-87
2022-12-20T19:55:39.271Z,-86
2022-12-20T19:58:07.760Z,-86
2022-12-20T20:00:37.671Z,-87
2022-12-20T20:03:07.853Z,-86
2022-12-20T20:05:36.572Z,-86
2022-12-20T20:08:05.643Z,-86
2022-12-20T20:10:34.239Z,-87
2022-12-20T20:13:03.055Z,-87
2022-12-20T20:15:31.621Z,-87
2022-12-20T20:18:04.624Z,-87
2022-12-20T20:20:34.996Z,-87
2022-12-20T20:23:03.605Z,-88
2022-12-20T20:25:35.408Z,-87
2022-12-20T20:28:04.819Z,-87
2022-12-20T20:30:33.445Z,-87
2022-12-20T20:33:03.485Z,-86
2022-12-20T20:35:32.025Z,-88
2022-12-20T20:38:00.692Z,-88
2022-12-20T20:40:29.187Z,-86
2022-12-20T20:42:58.212Z,-85
2022-12-20T20:45:26.911Z,-86
2022-12-20T20:47:55.510Z,-87
2022-12-20T20:50:25.513Z,-88
2022-12-20T20:52:54.017Z,-87
2022-12-20T20:55:23.033Z,-87
2022-12-20T20:57:51.623Z,-87
2022-12-20T21:00:20.879Z,-87
2022-12-20T21:02:49.701Z,-87
2022-12-20T21:08:08.722Z,-87
2022-12-20T21:10:38.225Z,-87
2022-12-20T21:13:06.861Z,-87
2022-12-20T21:15:35.632Z,-87
2022-12-20T21:18:04.339Z,-86
2022-12-20T21:20:32.888Z,-87
2022-12-20T21:23:01.611Z,-87
2022-12-20T21:25:32.056Z,-88
2022-12-20T21:28:00.700Z,-87
2022-12-20T21:30:29.250Z,-87
2022-12-20T21:32:57.731Z,-87
2022-12-20T21:35:27.191Z,-87
2022-12-20T21:37:55.741Z,-87
2022-12-20T21:40:24.295Z,-87
2022-12-20T21:42:54.295Z,-87
2022-12-20T21:45:22.791Z,-87
2022-12-20T21:47:51.192Z,-87
2022-12-20T21:50:19.711Z,-88
2022-12-20T21:52:48.174Z,-87
2022-12-20T21:55:16.874Z,-86
2022-12-20T21:57:48.202Z,-87
2022-12-20T22:00:19.919Z,-87
2022-12-20T22:02:48.465Z,-87
2022-12-20T22:05:17.193Z,-86
2022-12-20T22:07:47.797Z,-87
2022-12-20T22:10:16.486Z,-86
2022-12-20T22:12:45.039Z,-87
2022-12-20T22:15:13.841Z,-87
2022-12-20T22:17:43.704Z,-87
2022-12-20T22:20:13.074Z,-87
2022-12-20T22:22:41.607Z,-87
2022-12-20T22:25:11.093Z,-87
2022-12-20T22:27:39.677Z,-86
2022-12-20T22:30:10.244Z,-87
2022-12-20T22:32:38.679Z,-87
2022-12-20T22:35:09.907Z,-87
2022-12-20T22:37:38.485Z,-87
2022-12-20T22:40:08.944Z,-88
2022-12-20T22:42:40.194Z,-87
2022-12-20T22:45:10.742Z,-87
2022-12-20T22:47:41.629Z,-87
2022-12-20T22:50:12.850Z,-87
2022-12-20T22:52:41.343Z,-87
2022-12-20T22:55:11.218Z,-87
2022-12-20T22:57:39.938Z,-87
2022-12-20T23:00:13.380Z,-87
2022-12-20T23:02:42.223Z,-87
2022-12-20T23:05:13.934Z,-87
2022-12-20T23:07:42.959Z,-86
2022-12-20T23:10:34.719Z,-87
2022-12-20T23:13:20.865Z,-86
2022-12-20T23:15:49.908Z,-87
2022-12-20T23:18:18.532Z,-87
2022-12-20T23:21:09.958Z,-87
2022-12-20T23:23:39.081Z,-87
2022-12-20T23:26:12.383Z,-87
2022-12-20T23:28:41.231Z,-86
2022-12-20T23:31:11.451Z,-87
2022-12-20T23:33:40.333Z,-87
2022-12-20T23:36:12.573Z,-87
2022-12-20T23:38:41.061Z,-87
2022-12-20T23:41:10.066Z,-88
2022-12-20T23:43:39.087Z,-86
2022-12-20T23:46:12.447Z,-88
2022-12-20T23:48:41.457Z,-87
2022-12-20T23:51:12.211Z,-87
2022-12-20T23:53:41.103Z,-88
2022-12-20T23:56:13.788Z,-87
2022-12-20T23:58:43.475Z,-87
